CDT,Max TemperatureF,Mean TemperatureF,Min TemperatureF,Max Dew PointF,MeanDew PointF,Min DewpointF,Max Humidity, Mean Humidity, Min Humidity, Max Sea Level PressureIn, Mean Sea Level PressureIn, Min Sea Level PressureIn, Max VisibilityMiles, Mean VisibilityMiles, Min VisibilityMiles, Max Wind SpeedMPH, Mean Wind SpeedMPH, Max Gust SpeedMPH,PrecipitationIn, CloudCover, Events, WindDirDegrees
2011-10-1,59,47,35,41,37,32,93,72,41,30.31,30.25,30.18,10,10,10,14,9,18,0.00,0,,354
2011-10-2,64,50,35,45,37,32,100,69,30,30.29,30.25,30.17,10,8,0,9,5,9,0.00,1,Fog,318
2011-10-3,71,56,42,50,45,41,93,67,41,30.22,30.19,30.16,10,10,10,10,7,16,0.00,0,,343
2011-10-4,73,58,42,50,45,41,100,69,36,30.31,30.25,30.21,10,10,10,8,1,,0.00,0,,173
2011-10-5,77,60,44,52,47,43,93,61,29,30.27,30.22,30.17,10,10,10,13,4,17,0.00,0,,175
2011-10-6,78,64,51,54,51,46,88,65,39,30.27,30.22,30.18,10,10,10,15,6,17,0.00,0,,140
2011-10-7,80,66,53,59,53,50,94,65,37,30.31,30.24,30.20,10,10,10,23,10,29,0.00,0,,162
2011-10-8,78,66,53,59,54,50,94,70,39,30.32,30.27,30.22,10,10,7,18,9,23,0.00,0,,171
2011-10-9,77,64,50,55,49,43,88,62,29,30.36,30.31,30.23,10,10,10,13,7,18,0.00,0,,154
2011-10-10,73,62,51,55,50,46,94,70,38,30.22,30.15,30.05,10,10,7,14,7,18,0.00,0,,144
2011-10-11,75,64,53,59,56,50,88,73,53,30.03,29.98,29.91,10,10,10,12,6,18,0.00,3,,156
2011-10-12,75,63,51,61,54,50,100,77,44,29.90,29.79,29.66,10,9,7,16,6,21,0.06,4,Rain,130
2011-10-13,60,58,55,59,57,54,100,94,88,29.63,29.55,29.50,10,7,2,17,4,24,0.45,7,Rain,264
2011-10-14,59,52,44,45,43,37,93,75,48,29.67,29.60,29.55,10,10,10,28,15,36,0.00,2,,274
2011-10-15,59,50,42,41,38,32,93,65,36,29.86,29.81,29.71,10,10,10,24,18,34,0.00,0,,271
2011-10-16,59,52,44,48,41,34,93,72,41,29.87,29.81,29.75,10,10,5,21,7,28,0.13,2,Rain,269
2011-10-17,55,46,37,36,33,30,87,61,38,29.89,29.85,29.80,10,10,10,18,13,28,0.00,0,,260
2011-10-18,51,43,35,41,36,34,93,74,58,29.85,29.82,29.80,10,10,10,13,8,18,0.00,2,,330
2011-10-19,44,42,41,41,39,37,93,86,76,29.82,29.75,29.67,10,10,4,22,14,31,0.13,7,Rain,354
2011-10-20,46,44,41,37,35,34,81,73,62,29.81,29.65,29.56,10,10,10,25,18,36,0.00,8,Rain,321
2011-10-21,53,42,32,37,33,32,100,72,44,30.08,30.01,29.90,10,10,10,12,6,18,0.00,0,,297
2011-10-22,64,48,32,43,37,30,100,69,42,30.05,30.02,29.98,10,10,10,12,6,,0.00,0,,231
2011-10-23,64,50,37,45,40,36,93,69,40,29.98,29.94,29.86,10,9,5,15,5,18,0.00,1,,243
2011-10-24,60,50,41,50,42,34,100,73,36,30.11,30.02,29.85,10,9,4,14,8,20,0.01,0,Rain-Thunderstorm,274
2011-10-25,71,56,41,55,45,37,88,71,38,30.08,29.90,29.73,10,10,7,20,11,28,0.05,3,Rain-Thunderstorm,176
2011-10-26,51,48,44,50,44,41,100,91,82,29.95,29.88,29.75,10,9,4,18,12,20,0.00,8,,6
2011-10-27,50,46,41,41,37,34,93,77,54,30.11,30.01,29.95,10,10,7,12,6,26,0.04,5,Rain,329
2011-10-28,53,42,32,41,32,27,100,73,35,30.16,30.11,30.03,10,9,5,13,6,18,0.00,2,,212
2011-10-29,51,42,32,36,30,23,93,68,35,30.08,30.03,29.99,10,10,7,13,7,18,0.00,1,,278
2011-10-30,53,43,33,43,34,27,93,74,54,30.09,29.99,29.90,10,9,2,26,12,43,0.13,4,Rain,167
2011-10-31,50,41,32,43,37,32,100,86,66,30.10,30.01,29.95,10,9,0,12,6,,0.00,3,Fog,268